Anapa, Russia

2:34 PM MSK on December 09, 2016 (GMT +0300)
Vityazevo | | Change Station

Elev 174 ft 45.00 °N, 37.35 °E | Updated 34 minutes ago

Mostly Cloudy
Mostly Cloudy
45 °F
Feels Like 38 °F
N
13
Wind Variable Wind from West

Today
High -- | Low -- °F
--% Chance of Precip.
Yesterday
High -- | Low -- °F
Precip. -- in
Pressure 29.98 in
Visibility 6.2 miles
Clouds Mostly Cloudy 1600 ft
Mostly Cloudy 2300 ft
Windchill 38 °F
Dew Point 41 °F
Humidity 87%
Rainfall 0.00 in
Snow Depth Not available.
7:56 AM 4:49 PM
Waxing Gibbous, 73% visible
METAR URKA 091100Z 27006MPS 9999 BKN016 BKN023 07/05 Q1015 R22/290260 RMK QFE756/1009
Pressure 29.98 in
Visibility 6.2 miles
Clouds Mostly Cloudy 1600 ft
Mostly Cloudy 2300 ft
Windchill 38 °F
Dew Point 41 °F
Humidity 87%
Rainfall 0.00 in
Snow Depth Not available.
7:56 AM 4:49 PM
Waxing Gibbous, 73% visible
METAR URKA 091100Z 27006MPS 9999 BKN016 BKN023 07/05 Q1015 R22/290260 RMK QFE756/1009

10-Day Weather Forecast

×

Almanac

Astronomy

Dec. 09, 2016 Rise Set
Actual Time
Civil Twilight
Nautical Twilight
Astronomical Twilight
Moon
Length of Visible Light
Length of Day
Tomorrow will be .
, % of the Moon is Illuminated

Today's Extremes

Country Highs Country Lows

Community

WunderPhotos

Upload Photos

1,956,378 photos uploaded!

WunderBlog® & News

Nearby

Air Quality

  Air Quality AQ Index Pollutant
Not available.

Snow Depth

Station Depth Elevation

Earthquake Activity

City Distance Mag. Time & Date
Minimum magnitude displayed is 2.5.

Coastal Water Temperatures

Place Temperature

Stations

Nearby Weather Stations

Station Location Temp. Windchill Dew Point Humidity Wind Precip. Elev Updated Type